sensor_id;sensor_type;location;lat;lon;timestamp;pressure;altitude;pressure_sealevel;temperature;humidity
12868;BME280;33517;49.866;8.320;2024-03-02T00:01:03;99299.28;;;4.59;91.14
12868;BME280;33517;49.866;8.320;2024-03-02T00:03:55;99288.19;;;4.57;90.97
12868;BME280;33517;49.866;8.320;2024-03-02T00:06:47;99271.09;;;4.54;91.04
12868;BME280;33517;49.866;8.320;2024-03-02T00:09:40;99276.13;;;4.56;91.31
12868;BME280;33517;49.866;8.320;2024-03-02T00:12:33;99284.09;;;4.54;92.59
12868;BME280;33517;49.866;8.320;2024-03-02T00:15:40;99280.28;;;4.66;92.98
12868;BME280;33517;49.866;8.320;2024-03-02T00:18:35;99286.66;;;4.72;92.83
12868;BME280;33517;49.866;8.320;2024-03-02T00:21:29;99295.41;;;4.71;92.92
12868;BME280;33517;49.866;8.320;2024-03-02T00:24:29;99293.47;;;4.65;93.58
12868;BME280;33517;49.866;8.320;2024-03-02T00:27:24;99302.34;;;4.54;93.39
12868;BME280;33517;49.866;8.320;2024-03-02T00:30:46;99310.94;;;4.47;92.89
12868;BME280;33517;49.866;8.320;2024-03-02T00:33:43;99312.81;;;4.37;93.22
12868;BME280;33517;49.866;8.320;2024-03-02T00:36:36;99314.22;;;4.31;93.07
12868;BME280;33517;49.866;8.320;2024-03-02T00:39:28;99316.50;;;4.26;92.82
12868;BME280;33517;49.866;8.320;2024-03-02T00:42:20;99306.69;;;4.20;93.78
12868;BME280;33517;49.866;8.320;2024-03-02T00:45:14;99302.91;;;4.15;93.53
12868;BME280;33517;49.866;8.320;2024-03-02T00:48:06;99300.91;;;4.09;93.61
12868;BME280;33517;49.866;8.320;2024-03-02T00:51:00;99313.00;;;4.00;93.51
12868;BME280;33517;49.866;8.320;2024-03-02T00:53:53;99300.63;;;3.94;92.82
12868;BME280;33517;49.866;8.320;2024-03-02T00:56:47;99305.00;;;3.94;93.24
12868;BME280;33517;49.866;8.320;2024-03-02T00:59:39;99298.81;;;3.95;93.24
12868;BME280;33517;49.866;8.320;2024-03-02T01:02:32;99296.72;;;3.98;93.00
12868;BME280;33517;49.866;8.320;2024-03-02T01:05:24;99306.34;;;3.98;94.12
12868;BME280;33517;49.866;8.320;2024-03-02T01:08:15;99306.78;;;3.93;94.14
12868;BME280;33517;49.866;8.320;2024-03-02T01:11:07;99299.13;;;3.92;93.98
12868;BME280;33517;49.866;8.320;2024-03-02T01:14:00;99296.81;;;3.89;93.86
12868;BME280;33517;49.866;8.320;2024-03-02T01:16:51;99294.97;;;3.81;94.63
12868;BME280;33517;49.866;8.320;2024-03-02T01:19:45;99292.34;;;3.81;94.89
12868;BME280;33517;49.866;8.320;2024-03-02T01:22:37;99292.22;;;3.83;94.53
12868;BME280;33517;49.866;8.320;2024-03-02T01:25:29;99290.75;;;3.80;94.61
12868;BME280;33517;49.866;8.320;2024-03-02T01:28:21;99279.66;;;3.78;94.17
12868;BME280;33517;49.866;8.320;2024-03-02T01:31:13;99286.94;;;3.74;94.68
12868;BME280;33517;49.866;8.320;2024-03-02T01:34:04;99283.38;;;3.75;93.60
12868;BME280;33517;49.866;8.320;2024-03-02T01:36:58;99277.50;;;3.73;94.13
12868;BME280;33517;49.866;8.320;2024-03-02T01:39:50;99270.66;;;3.72;94.18
12868;BME280;33517;49.866;8.320;2024-03-02T01:42:43;99266.56;;;3.70;93.91
12868;BME280;33517;49.866;8.320;2024-03-02T01:45:35;99274.22;;;3.71;94.63
12868;BME280;33517;49.866;8.320;2024-03-02T01:48:28;99266.72;;;3.68;94.63
12868;BME280;33517;49.866;8.320;2024-03-02T01:51:20;99265.25;;;3.66;94.42
12868;BME280;33517;49.866;8.320;2024-03-02T01:54:13;99262.72;;;3.56;95.69
12868;BME280;33517;49.866;8.320;2024-03-02T01:57:05;99262.88;;;3.55;95.14
12868;BME280;33517;49.866;8.320;2024-03-02T01:59:57;99267.25;;;3.54;95.89
12868;BME280;33517;49.866;8.320;2024-03-02T02:02:49;99267.25;;;3.54;95.96
12868;BME280;33517;49.866;8.320;2024-03-02T02:05:42;99258.50;;;3.55;95.64
12868;BME280;33517;49.866;8.320;2024-03-02T02:08:33;99258.50;;;3.55;95.36
12868;BME280;33517;49.866;8.320;2024-03-02T02:11:27;99255.22;;;3.53;95.45
12868;BME280;33517;49.866;8.320;2024-03-02T02:14:19;99259.59;;;3.53;95.22
12868;BME280;33517;49.866;8.320;2024-03-02T02:17:11;99250.31;;;3.50;95.48
12868;BME280;33517;49.866;8.320;2024-03-02T02:20:03;99254.72;;;3.50;94.69
12868;BME280;33517;49.866;8.320;2024-03-02T02:22:58;99254.03;;;3.48;95.06
12868;BME280;33517;49.866;8.320;2024-03-02T02:25:50;99253.53;;;3.44;94.97
12868;BME280;33517;49.866;8.320;2024-03-02T02:28:42;99247.09;;;3.39;94.84
12868;BME280;33517;49.866;8.320;2024-03-02T02:31:37;99248.41;;;3.35;94.95
12868;BME280;33517;49.866;8.320;2024-03-02T02:34:29;99243.09;;;3.27;95.23
12868;BME280;33517;49.866;8.320;2024-03-02T02:37:21;99235.47;;;3.25;94.90
12868;BME280;33517;49.866;8.320;2024-03-02T02:40:15;99241.91;;;3.21;94.56
12868;BME280;33517;49.866;8.320;2024-03-02T02:43:09;99251.91;;;3.16;94.52
12868;BME280;33517;49.866;8.320;2024-03-02T02:46:01;99238.41;;;3.13;94.27
12868;BME280;33517;49.866;8.320;2024-03-02T02:48:54;99243.91;;;3.10;94.16
12868;BME280;33517;49.866;8.320;2024-03-02T02:51:46;99239.44;;;3.02;94.12
12868;BME280;33517;49.866;8.320;2024-03-02T02:54:38;99225.91;;;2.99;95.85
12868;BME280;33517;49.866;8.320;2024-03-02T02:57:31;99227.41;;;3.01;96.76
12868;BME280;33517;49.866;8.320;2024-03-02T03:00:26;99215.38;;;3.00;96.22
12868;BME280;33517;49.866;8.320;2024-03-02T03:03:18;99211.28;;;2.98;95.71
12868;BME280;33517;49.866;8.320;2024-03-02T03:06:10;99220.19;;;2.95;95.19
12868;BME280;33517;49.866;8.320;2024-03-02T03:09:02;99216.91;;;2.93;95.16
12868;BME280;33517;49.866;8.320;2024-03-02T03:11:54;99207.50;;;2.92;95.18
12868;BME280;33517;49.866;8.320;2024-03-02T03:14:47;99208.31;;;2.93;94.99
12868;BME280;33517;49.866;8.320;2024-03-02T03:17:39;99212.03;;;2.90;95.27
12868;BME280;33517;49.866;8.320;2024-03-02T03:20:31;99218.84;;;2.91;97.41
12868;BME280;33517;49.866;8.320;2024-03-02T03:23:24;99228.44;;;3.08;97.69
12868;BME280;33517;49.866;8.320;2024-03-02T03:26:16;99218.06;;;3.26;98.98
12868;BME280;33517;49.866;8.320;2024-03-02T03:29:08;99213.19;;;3.40;98.24
12868;BME280;33517;49.866;8.320;2024-03-02T03:32:01;99215.31;;;3.45;98.34
12868;BME280;33517;49.866;8.320;2024-03-02T03:34:54;99212.19;;;3.41;98.99
12868;BME280;33517;49.866;8.320;2024-03-02T03:37:45;99208.78;;;3.41;97.99
12868;BME280;33517;49.866;8.320;2024-03-02T03:40:37;99210.84;;;3.37;97.60
12868;BME280;33517;49.866;8.320;2024-03-02T03:43:29;99210.50;;;3.32;97.60
12868;BME280;33517;49.866;8.320;2024-03-02T03:46:21;99205.81;;;3.18;97.69
12868;BME280;33517;49.866;8.320;2024-03-02T03:49:14;99212.13;;;3.16;97.67
12868;BME280;33517;49.866;8.320;2024-03-02T03:52:06;99210.66;;;3.13;98.19
12868;BME280;33517;49.866;8.320;2024-03-02T03:54:58;99212.94;;;3.16;98.46
12868;BME280;33517;49.866;8.320;2024-03-02T03:57:50;99205.38;;;3.23;98.38
12868;BME280;33517;49.866;8.320;2024-03-02T04:00:42;99206.13;;;3.33;98.52
12868;BME280;33517;49.866;8.320;2024-03-02T04:03:34;99215.53;;;3.34;98.01
12868;BME280;33517;49.866;8.320;2024-03-02T04:10:14;99207.22;;;3.30;97.78
12868;BME280;33517;49.866;8.320;2024-03-02T04:13:07;99205.81;;;3.36;98.22
12868;BME280;33517;49.866;8.320;2024-03-02T04:16:00;99206.50;;;3.38;98.25
12868;BME280;33517;49.866;8.320;2024-03-02T04:18:52;99210.03;;;3.37;98.37
12868;BME280;33517;49.866;8.320;2024-03-02T04:21:44;99211.31;;;3.33;98.36
12868;BME280;33517;49.866;8.320;2024-03-02T04:24:36;99211.41;;;3.23;99.11
12868;BME280;33517;49.866;8.320;2024-03-02T04:27:29;99219.63;;;3.19;98.39
12868;BME280;33517;49.866;8.320;2024-03-02T04:30:21;99221.97;;;3.12;99.03
12868;BME280;33517;49.866;8.320;2024-03-02T04:33:13;99214.19;;;3.12;98.82
12868;BME280;33517;49.866;8.320;2024-03-02T04:36:05;99213.25;;;3.13;98.79
12868;BME280;33517;49.866;8.320;2024-03-02T04:38:59;99215.16;;;3.11;99.59
12868;BME280;33517;49.866;8.320;2024-03-02T04:41:51;99220.53;;;3.10;99.21
12868;BME280;33517;49.866;8.320;2024-03-02T04:44:44;99216.19;;;3.18;99.66
12868;BME280;33517;49.866;8.320;2024-03-02T04:47:36;99223.34;;;3.16;100.00
12868;BME280;33517;49.866;8.320;2024-03-02T04:50:28;99228.16;;;3.11;100.00
12868;BME280;33517;49.866;8.320;2024-03-02T04:53:20;99235.72;;;3.05;100.00
12868;BME280;33517;49.866;8.320;2024-03-02T04:56:12;99232.16;;;3.06;100.00
12868;BME280;33517;49.866;8.320;2024-03-02T04:59:34;99242.72;;;3.04;100.00
12868;BME280;33517;49.866;8.320;2024-03-02T05:02:28;99236.97;;;3.01;100.00
12868;BME280;33517;49.866;8.320;2024-03-02T05:05:20;99241.63;;;2.97;100.00
12868;BME280;33517;49.866;8.320;2024-03-02T05:08:12;99245.78;;;2.90;100.00
12868;BME280;33517;49.866;8.320;2024-03-02T05:11:04;99250.75;;;2.83;100.00
12868;BME280;33517;49.866;8.320;2024-03-02T05:14:09;99242.81;;;2.85;100.00
12868;BME280;33517;49.866;8.320;2024-03-02T05:17:01;99238.78;;;3.00;100.00
12868;BME280;33517;49.866;8.320;2024-03-02T05:19:54;99234.13;;;3.21;100.00
12868;BME280;33517;49.866;8.320;2024-03-02T05:22:46;99243.31;;;3.33;100.00
12868;BME280;33517;49.866;8.320;2024-03-02T05:25:39;99253.50;;;3.27;100.00
12868;BME280;33517;49.866;8.320;2024-03-02T05:28:31;99250.38;;;3.23;100.00
12868;BME280;33517;49.866;8.320;2024-03-02T05:31:22;99251.69;;;3.27;100.00
12868;BME280;33517;49.866;8.320;2024-03-02T05:34:14;99252.19;;;3.40;100.00
12868;BME280;33517;49.866;8.320;2024-03-02T05:37:08;99253.38;;;4.07;100.00
12868;BME280;33517;49.866;8.320;2024-03-02T05:40:00;99264.66;;;4.66;100.00
12868;BME280;33517;49.866;8.320;2024-03-02T05:42:52;99267.56;;;5.05;100.00
12868;BME280;33517;49.866;8.320;2024-03-02T05:45:43;99265.34;;;5.34;100.00
12868;BME280;33517;49.866;8.320;2024-03-02T05:48:35;99270.94;;;5.55;100.00
12868;BME280;33517;49.866;8.320;2024-03-02T05:51:27;99263.78;;;5.66;100.00
12868;BME280;33517;49.866;8.320;2024-03-02T05:54:21;99275.19;;;5.73;100.00
12868;BME280;33517;49.866;8.320;2024-03-02T05:57:13;99271.50;;;5.83;100.00
12868;BME280;33517;49.866;8.320;2024-03-02T06:00:22;99277.31;;;5.77;100.00
12868;BME280;33517;49.866;8.320;2024-03-02T06:03:14;99276.69;;;5.75;99.95
12868;BME280;33517;49.866;8.320;2024-03-02T06:06:06;99284.78;;;5.32;97.78
12868;BME280;33517;49.866;8.320;2024-03-02T06:08:58;99289.78;;;5.25;98.58
12868;BME280;33517;49.866;8.320;2024-03-02T06:11:51;99288.66;;;5.28;98.76
12868;BME280;33517;49.866;8.320;2024-03-02T06:14:44;99279.69;;;5.22;97.69
12868;BME280;33517;49.866;8.320;2024-03-02T06:17:36;99282.56;;;5.11;98.06
12868;BME280;33517;49.866;8.320;2024-03-02T06:20:28;99285.47;;;5.00;98.20
12868;BME280;33517;49.866;8.320;2024-03-02T06:23:21;99290.25;;;5.13;98.57
12868;BME280;33517;49.866;8.320;2024-03-02T06:26:13;99290.25;;;5.21;98.63
12868;BME280;33517;49.866;8.320;2024-03-02T06:29:06;99287.88;;;5.35;98.48
12868;BME280;33517;49.866;8.320;2024-03-02T06:31:58;99286.09;;;5.44;97.65
12868;BME280;33517;49.866;8.320;2024-03-02T06:34:50;99289.81;;;5.33;96.60
12868;BME280;33517;49.866;8.320;2024-03-02T06:37:42;99288.63;;;5.20;96.79
12868;BME280;33517;49.866;8.320;2024-03-02T06:40:34;99292.53;;;5.16;97.00
12868;BME280;33517;49.866;8.320;2024-03-02T06:43:28;99298.56;;;5.16;97.08
12868;BME280;33517;49.866;8.320;2024-03-02T06:46:21;99299.56;;;5.23;97.10
12868;BME280;33517;49.866;8.320;2024-03-02T06:49:13;99297.50;;;5.43;97.79
12868;BME280;33517;49.866;8.320;2024-03-02T06:52:05;99295.41;;;5.54;97.53
12868;BME280;33517;49.866;8.320;2024-03-02T06:54:57;99304.22;;;5.61;97.30
12868;BME280;33517;49.866;8.320;2024-03-02T06:57:49;99302.44;;;5.70;97.41
12868;BME280;33517;49.866;8.320;2024-03-02T07:00:41;99300.47;;;5.80;97.79
12868;BME280;33517;49.866;8.320;2024-03-02T07:03:34;99297.75;;;5.90;97.36
12868;BME280;33517;49.866;8.320;2024-03-02T07:06:26;99310.50;;;6.01;96.77
12868;BME280;33517;49.866;8.320;2024-03-02T07:09:18;99296.13;;;6.13;96.55
12868;BME280;33517;49.866;8.320;2024-03-02T07:12:13;99306.41;;;6.22;96.43
12868;BME280;33517;49.866;8.320;2024-03-02T07:15:06;99304.56;;;6.55;94.99
12868;BME280;33517;49.866;8.320;2024-03-02T07:18:21;99294.44;;;8.51;91.69
12868;BME280;33517;49.866;8.320;2024-03-02T07:21:14;99300.41;;;9.17;86.26
12868;BME280;33517;49.866;8.320;2024-03-02T07:24:06;99300.44;;;10.65;84.22
12868;BME280;33517;49.866;8.320;2024-03-02T07:27:00;99319.59;;;11.68;79.78
12868;BME280;33517;49.866;8.320;2024-03-02T07:29:52;99309.16;;;11.06;80.92
12868;BME280;33517;49.866;8.320;2024-03-02T07:32:44;99313.97;;;10.35;81.55
12868;BME280;33517;49.866;8.320;2024-03-02T07:35:36;99324.13;;;9.24;84.00
12868;BME280;33517;49.866;8.320;2024-03-02T07:38:29;99326.91;;;8.64;87.47
12868;BME280;33517;49.866;8.320;2024-03-02T07:41:22;99327.41;;;8.30;88.29
12868;BME280;33517;49.866;8.320;2024-03-02T07:44:13;99330.81;;;8.08;89.51
12868;BME280;33517;49.866;8.320;2024-03-02T07:47:06;99323.59;;;8.10;90.61
12868;BME280;33517;49.866;8.320;2024-03-02T07:49:58;99332.66;;;8.22;89.46
12868;BME280;33517;49.866;8.320;2024-03-02T07:52:50;99326.44;;;8.23;90.19
12868;BME280;33517;49.866;8.320;2024-03-02T07:55:43;99325.31;;;8.18;89.79
12868;BME280;33517;49.866;8.320;2024-03-02T07:58:35;99335.28;;;8.22;89.80
12868;BME280;33517;49.866;8.320;2024-03-02T08:01:27;99334.78;;;8.27;89.38
12868;BME280;33517;49.866;8.320;2024-03-02T08:04:20;99337.25;;;8.28;88.41
12868;BME280;33517;49.866;8.320;2024-03-02T08:07:12;99338.03;;;8.29;88.85
12868;BME280;33517;49.866;8.320;2024-03-02T08:10:05;99344.56;;;8.33;88.93
12868;BME280;33517;49.866;8.320;2024-03-02T08:12:59;99345.00;;;8.36;89.11
12868;BME280;33517;49.866;8.320;2024-03-02T08:15:50;99346.84;;;8.36;89.02
12868;BME280;33517;49.866;8.320;2024-03-02T08:18:42;99351.84;;;8.46;89.29
12868;BME280;33517;49.866;8.320;2024-03-02T08:21:35;99340.00;;;8.50;88.79
12868;BME280;33517;49.866;8.320;2024-03-02T08:24:27;99337.72;;;8.47;89.04
12868;BME280;33517;49.866;8.320;2024-03-02T08:27:18;99344.81;;;8.61;89.54
12868;BME280;33517;49.866;8.320;2024-03-02T08:30:13;99341.28;;;8.68;89.10
12868;BME280;33517;49.866;8.320;2024-03-02T08:33:05;99346.66;;;8.89;88.13
12868;BME280;33517;49.866;8.320;2024-03-02T08:35:57;99348.00;;;9.00;87.95
12868;BME280;33517;49.866;8.320;2024-03-02T08:38:49;99349.28;;;9.04;87.85
12868;BME280;33517;49.866;8.320;2024-03-02T08:41:42;99344.84;;;9.04;86.78
12868;BME280;33517;49.866;8.320;2024-03-02T08:44:34;99348.38;;;9.11;87.38
12868;BME280;33517;49.866;8.320;2024-03-02T08:47:27;99340.50;;;9.11;86.23
12868;BME280;33517;49.866;8.320;2024-03-02T08:50:19;99337.22;;;9.09;85.64
12868;BME280;33517;49.866;8.320;2024-03-02T08:53:11;99336.88;;;9.12;86.08
12868;BME280;33517;49.866;8.320;2024-03-02T08:56:04;99350.81;;;9.27;86.25
12868;BME280;33517;49.866;8.320;2024-03-02T08:58:56;99352.22;;;9.45;85.48
12868;BME280;33517;49.866;8.320;2024-03-02T09:01:48;99357.72;;;9.64;84.50
12868;BME280;33517;49.866;8.320;2024-03-02T09:04:41;99358.06;;;9.76;84.67
12868;BME280;33517;49.866;8.320;2024-03-02T09:07:33;99356.03;;;10.13;83.63
12868;BME280;33517;49.866;8.320;2024-03-02T09:10:25;99350.25;;;10.46;82.48
12868;BME280;33517;49.866;8.320;2024-03-02T09:13:17;99341.16;;;11.03;81.06
12868;BME280;33517;49.866;8.320;2024-03-02T09:16:09;99340.56;;;12.68;78.13
12868;BME280;33517;49.866;8.320;2024-03-02T09:19:01;99341.25;;;14.71;72.19
12868;BME280;33517;49.866;8.320;2024-03-02T09:21:54;99344.09;;;14.95;69.48
12868;BME280;33517;49.866;8.320;2024-03-02T09:24:48;99354.03;;;14.25;70.96
12868;BME280;33517;49.866;8.320;2024-03-02T09:27:40;99354.22;;;13.93;70.85
12868;BME280;33517;49.866;8.320;2024-03-02T09:30:32;99353.31;;;13.74;72.30
12868;BME280;33517;49.866;8.320;2024-03-02T09:33:24;99350.41;;;13.82;72.14
12868;BME280;33517;49.866;8.320;2024-03-02T09:36:19;99348.97;;;13.86;70.02
12868;BME280;33517;49.866;8.320;2024-03-02T09:39:12;99347.09;;;13.93;69.51
12868;BME280;33517;49.866;8.320;2024-03-02T09:42:05;99346.38;;;13.79;68.95
12868;BME280;33517;49.866;8.320;2024-03-02T09:44:58;99347.56;;;13.33;68.99
12868;BME280;33517;49.866;8.320;2024-03-02T09:47:50;99352.91;;;13.13;70.12
12868;BME280;33517;49.866;8.320;2024-03-02T09:50:43;99341.56;;;13.13;69.33
12868;BME280;33517;49.866;8.320;2024-03-02T09:53:35;99331.41;;;12.83;70.69
12868;BME280;33517;49.866;8.320;2024-03-02T09:56:29;99332.03;;;13.05;70.56
12868;BME280;33517;49.866;8.320;2024-03-02T09:59:21;99325.28;;;13.22;70.27
12868;BME280;33517;49.866;8.320;2024-03-02T10:02:13;99321.00;;;13.21;68.75
12868;BME280;33517;49.866;8.320;2024-03-02T10:05:05;99326.50;;;13.13;70.12
12868;BME280;33517;49.866;8.320;2024-03-02T10:08:01;99340.94;;;13.04;69.60
12868;BME280;33517;49.866;8.320;2024-03-02T10:10:53;99342.44;;;13.51;69.89
12868;BME280;33517;49.866;8.320;2024-03-02T10:13:47;99337.28;;;14.00;67.93
12868;BME280;33517;49.866;8.320;2024-03-02T10:16:41;99336.16;;;14.70;66.26
12868;BME280;33517;49.866;8.320;2024-03-02T10:19:34;99330.03;;;15.30;64.76
12868;BME280;33517;49.866;8.320;2024-03-02T10:22:27;99335.75;;;16.34;61.98
12868;BME280;33517;49.866;8.320;2024-03-02T10:25:29;99327.28;;;17.13;60.38
12868;BME280;33517;49.866;8.320;2024-03-02T10:28:22;99323.69;;;17.19;59.35
12868;BME280;33517;49.866;8.320;2024-03-02T10:31:16;99320.47;;;16.94;58.91
12868;BME280;33517;49.866;8.320;2024-03-02T10:34:09;99320.53;;;16.30;58.60
12868;BME280;33517;49.866;8.320;2024-03-02T10:37:01;99317.00;;;16.06;59.39
12868;BME280;33517;49.866;8.320;2024-03-02T10:39:53;99310.84;;;15.94;60.37
12868;BME280;33517;49.866;8.320;2024-03-02T10:42:52;99312.38;;;15.90;60.44
12868;BME280;33517;49.866;8.320;2024-03-02T10:45:47;99306.63;;;16.05;60.34
12868;BME280;33517;49.866;8.320;2024-03-02T10:48:45;99302.03;;;16.65;58.75
12868;BME280;33517;49.866;8.320;2024-03-02T10:51:38;99308.28;;;16.29;58.23
12868;BME280;33517;49.866;8.320;2024-03-02T10:54:30;99302.13;;;15.94;58.94
12868;BME280;33517;49.866;8.320;2024-03-02T10:57:27;99300.94;;;15.60;59.74
12868;BME280;33517;49.866;8.320;2024-03-02T11:00:25;99289.84;;;15.15;59.00
12868;BME280;33517;49.866;8.320;2024-03-02T11:03:20;99290.66;;;14.98;60.36
12868;BME280;33517;49.866;8.320;2024-03-02T11:06:13;99286.47;;;14.90;60.72
12868;BME280;33517;49.866;8.320;2024-03-02T11:09:07;99278.00;;;15.00;60.09
12868;BME280;33517;49.866;8.320;2024-03-02T11:12:03;99280.44;;;15.01;60.43
12868;BME280;33517;49.866;8.320;2024-03-02T11:14:55;99284.78;;;15.14;60.70
12868;BME280;33517;49.866;8.320;2024-03-02T11:17:48;99278.34;;;15.39;60.45
12868;BME280;33517;49.866;8.320;2024-03-02T11:20:40;99281.19;;;15.56;60.07
12868;BME280;33517;49.866;8.320;2024-03-02T11:23:35;99273.84;;;15.40;60.64
12868;BME280;33517;49.866;8.320;2024-03-02T11:26:27;99272.28;;;15.50;59.87
12868;BME280;33517;49.866;8.320;2024-03-02T11:29:43;99267.13;;;15.85;60.03
12868;BME280;33517;49.866;8.320;2024-03-02T11:32:35;99260.28;;;15.78;57.59
12868;BME280;33517;49.866;8.320;2024-03-02T11:35:27;99258.69;;;15.77;57.42
12868;BME280;33517;49.866;8.320;2024-03-02T11:38:19;99248.50;;;16.15;57.74
12868;BME280;33517;49.866;8.320;2024-03-02T11:41:13;99241.94;;;16.52;56.20
12868;BME280;33517;49.866;8.320;2024-03-02T11:44:05;99236.59;;;16.87;55.26
12868;BME280;33517;49.866;8.320;2024-03-02T11:46:59;99231.56;;;17.53;55.39
12868;BME280;33517;49.866;8.320;2024-03-02T11:49:51;99232.09;;;18.16;53.89
12868;BME280;33517;49.866;8.320;2024-03-02T11:52:45;99220.50;;;18.06;52.99
12868;BME280;33517;49.866;8.320;2024-03-02T11:55:38;99228.31;;;17.79;53.52
12868;BME280;33517;49.866;8.320;2024-03-02T11:58:34;99223.41;;;18.04;52.79
12868;BME280;33517;49.866;8.320;2024-03-02T12:01:29;99210.81;;;18.50;52.07
12868;BME280;33517;49.866;8.320;2024-03-02T12:04:21;99213.16;;;18.46;51.70
12868;BME280;33517;49.866;8.320;2024-03-02T12:07:18;99210.66;;;18.23;51.06
12868;BME280;33517;49.866;8.320;2024-03-02T12:10:10;99199.59;;;19.56;50.97
12868;BME280;33517;49.866;8.320;2024-03-02T12:13:04;99199.53;;;21.02;49.56
12868;BME280;33517;49.866;8.320;2024-03-02T12:15:58;99197.53;;;21.65;48.24
12868;BME280;33517;49.866;8.320;2024-03-02T12:18:50;99191.16;;;22.21;47.54
12868;BME280;33517;49.866;8.320;2024-03-02T12:21:43;99198.13;;;22.07;46.15
12868;BME280;33517;49.866;8.320;2024-03-02T12:24:35;99192.34;;;22.84;46.53
12868;BME280;33517;49.866;8.320;2024-03-02T12:27:28;99190.84;;;22.43;46.24
12868;BME280;33517;49.866;8.320;2024-03-02T12:30:20;99196.00;;;21.89;45.52
12868;BME280;33517;49.866;8.320;2024-03-02T12:33:13;99191.78;;;21.06;46.27
12868;BME280;33517;49.866;8.320;2024-03-02T12:36:09;99193.06;;;20.93;46.32
12868;BME280;33517;49.866;8.320;2024-03-02T12:39:02;99188.91;;;20.61;46.35
12868;BME280;33517;49.866;8.320;2024-03-02T12:41:54;99181.63;;;20.09;44.86
12868;BME280;33517;49.866;8.320;2024-03-02T12:44:46;99184.22;;;19.41;46.06
12868;BME280;33517;49.866;8.320;2024-03-02T12:47:39;99177.22;;;19.13;46.86
12868;BME280;33517;49.866;8.320;2024-03-02T12:50:33;99168.72;;;18.95;47.39
12868;BME280;33517;49.866;8.320;2024-03-02T12:53:25;99169.25;;;18.92;47.06
12868;BME280;33517;49.866;8.320;2024-03-02T12:56:17;99154.31;;;18.69;47.71
12868;BME280;33517;49.866;8.320;2024-03-02T12:59:09;99153.34;;;18.75;44.50
12868;BME280;33517;49.866;8.320;2024-03-02T13:02:02;99154.56;;;18.29;42.98
12868;BME280;33517;49.866;8.320;2024-03-02T13:04:54;99149.59;;;17.67;43.98
12868;BME280;33517;49.866;8.320;2024-03-02T13:07:48;99159.19;;;17.84;44.99
12868;BME280;33517;49.866;8.320;2024-03-02T13:10:40;99157.97;;;17.92;45.31
12868;BME280;33517;49.866;8.320;2024-03-02T13:13:32;99150.72;;;18.04;45.51
12868;BME280;33517;49.866;8.320;2024-03-02T13:16:25;99149.66;;;18.81;44.86
12868;BME280;33517;49.866;8.320;2024-03-02T13:19:17;99142.53;;;19.35;44.34
12868;BME280;33517;49.866;8.320;2024-03-02T13:22:09;99138.72;;;19.89;43.62
12868;BME280;33517;49.866;8.320;2024-03-02T13:25:03;99136.63;;;19.96;43.40
12868;BME280;33517;49.866;8.320;2024-03-02T13:27:56;99128.53;;;19.23;43.55
12868;BME280;33517;49.866;8.320;2024-03-02T13:30:47;99130.81;;;18.66;44.08
12868;BME280;33517;49.866;8.320;2024-03-02T13:33:39;99126.13;;;20.68;43.70
12868;BME280;33517;49.866;8.320;2024-03-02T13:36:31;99119.66;;;21.81;42.91
12868;BME280;33517;49.866;8.320;2024-03-02T13:39:23;99121.75;;;22.10;41.17
12868;BME280;33517;49.866;8.320;2024-03-02T13:42:17;99117.97;;;23.00;39.77
12868;BME280;33517;49.866;8.320;2024-03-02T13:45:09;99115.94;;;23.64;38.42
12868;BME280;33517;49.866;8.320;2024-03-02T13:48:01;99120.78;;;23.62;38.81
12868;BME280;33517;49.866;8.320;2024-03-02T13:50:54;99115.19;;;23.15;38.89
12868;BME280;33517;49.866;8.320;2024-03-02T13:53:46;99114.13;;;22.62;39.17
12868;BME280;33517;49.866;8.320;2024-03-02T13:56:38;99118.44;;;22.58;39.02
12868;BME280;33517;49.866;8.320;2024-03-02T13:59:33;99107.84;;;21.22;40.47
12868;BME280;33517;49.866;8.320;2024-03-02T14:02:25;99112.41;;;20.55;41.12
12868;BME280;33517;49.866;8.320;2024-03-02T14:05:17;99106.09;;;20.76;41.23
12868;BME280;33517;49.866;8.320;2024-03-02T14:08:10;99107.59;;;21.49;40.12
12868;BME280;33517;49.866;8.320;2024-03-02T14:11:03;99098.16;;;21.06;40.51
12868;BME280;33517;49.866;8.320;2024-03-02T14:13:55;99103.03;;;21.54;39.23
12868;BME280;33517;49.866;8.320;2024-03-02T14:16:49;99089.09;;;21.92;38.92
12868;BME280;33517;49.866;8.320;2024-03-02T14:19:41;99087.41;;;22.27;38.65
12868;BME280;33517;49.866;8.320;2024-03-02T14:22:32;99086.13;;;21.99;36.98
12868;BME280;33517;49.866;8.320;2024-03-02T14:25:25;99070.91;;;21.84;37.09
12868;BME280;33517;49.866;8.320;2024-03-02T14:28:17;99077.72;;;20.70;37.03
12868;BME280;33517;49.866;8.320;2024-03-02T14:31:10;99076.09;;;20.12;37.72
12868;BME280;33517;49.866;8.320;2024-03-02T14:34:03;99065.41;;;19.65;37.71
12868;BME280;33517;49.866;8.320;2024-03-02T14:36:55;99070.03;;;19.43;38.78
12868;BME280;33517;49.866;8.320;2024-03-02T14:39:47;99066.56;;;19.43;38.78
12868;BME280;33517;49.866;8.320;2024-03-02T14:42:39;99075.22;;;18.75;39.67
12868;BME280;33517;49.866;8.320;2024-03-02T14:45:31;99068.84;;;18.32;40.85
12868;BME280;33517;49.866;8.320;2024-03-02T14:48:23;99065.88;;;17.91;41.10
12868;BME280;33517;49.866;8.320;2024-03-02T14:51:16;99056.38;;;17.45;42.69
12868;BME280;33517;49.866;8.320;2024-03-02T14:54:08;99057.25;;;17.17;43.64
12868;BME280;33517;49.866;8.320;2024-03-02T14:57:00;99049.19;;;17.12;43.02
12868;BME280;33517;49.866;8.320;2024-03-02T14:59:53;99046.78;;;17.11;43.35
12868;BME280;33517;49.866;8.320;2024-03-02T15:02:45;99044.19;;;16.99;43.77
12868;BME280;33517;49.866;8.320;2024-03-02T15:05:37;99041.59;;;16.88;43.73
12868;BME280;33517;49.866;8.320;2024-03-02T15:08:30;99045.00;;;16.72;43.81
12868;BME280;33517;49.866;8.320;2024-03-02T15:11:23;99036.44;;;16.53;44.69
12868;BME280;33517;49.866;8.320;2024-03-02T15:14:15;99032.63;;;16.49;45.08
12868;BME280;33517;49.866;8.320;2024-03-02T15:17:07;99035.28;;;16.37;45.50
12868;BME280;33517;49.866;8.320;2024-03-02T15:19:59;99032.69;;;16.26;45.14
12868;BME280;33517;49.866;8.320;2024-03-02T15:22:51;99029.00;;;16.15;45.20
12868;BME280;33517;49.866;8.320;2024-03-02T15:25:44;99018.88;;;16.01;45.72